createdAt,value
2018-05-07T00:00:59.023Z,4.37
2018-05-07T00:03:26.473Z,4.00
2018-05-07T00:05:54.010Z,3.53
2018-05-07T00:08:21.346Z,3.90
2018-05-07T00:10:49.582Z,3.53
2018-05-07T00:13:17.046Z,3.70
2018-05-07T00:15:44.547Z,4.00
2018-05-07T00:18:12.011Z,4.20
2018-05-07T00:20:39.510Z,4.10
2018-05-07T00:23:06.943Z,3.93
2018-05-07T00:25:35.150Z,4.10
2018-05-07T00:28:02.631Z,3.90
2018-05-07T00:30:30.086Z,4.57
2018-05-07T00:32:57.553Z,4.20
2018-05-07T00:35:24.989Z,4.07
2018-05-07T00:37:52.433Z,3.77
2018-05-07T00:40:20.641Z,3.60
2018-05-07T00:42:48.120Z,3.93
2018-05-07T00:45:15.559Z,4.10
2018-05-07T00:47:42.993Z,3.80
2018-05-07T00:50:11.220Z,3.70
2018-05-07T00:52:38.682Z,4.10
2018-05-07T00:55:21.169Z,3.87
2018-05-07T00:57:48.609Z,4.33
2018-05-07T01:00:16.049Z,4.07
2018-05-07T01:02:44.264Z,4.03
2018-05-07T01:05:11.795Z,3.90
2018-05-07T01:07:40.028Z,4.30
2018-05-07T01:10:07.471Z,4.10
2018-05-07T01:12:35.931Z,3.70
2018-05-07T01:15:03.369Z,3.73
2018-05-07T01:17:31.610Z,4.27
2018-05-07T01:19:59.070Z,4.07
2018-05-07T01:22:26.582Z,4.00
2018-05-07T01:24:54.795Z,4.50
2018-05-07T01:27:22.241Z,4.40
2018-05-07T01:29:49.687Z,4.33
2018-05-07T01:32:17.882Z,4.00
2018-05-07T01:34:45.374Z,4.90
2018-05-07T01:37:12.854Z,4.43
2018-05-07T01:39:41.115Z,4.40
2018-05-07T01:42:08.683Z,4.03
2018-05-07T01:44:36.138Z,4.73
2018-05-07T01:47:03.570Z,4.90
2018-05-07T01:49:31.085Z,4.80
2018-05-07T01:51:58.531Z,4.03
2018-05-07T01:54:25.987Z,5.30
2018-05-07T01:56:53.419Z,4.43
2018-05-07T01:59:20.909Z,4.83
2018-05-07T02:01:48.375Z,4.30
2018-05-07T02:04:15.828Z,4.47
2018-05-07T02:06:43.299Z,4.80
2018-05-07T02:09:10.733Z,4.70
2018-05-07T02:11:38.193Z,3.93
2018-05-07T02:14:05.627Z,4.37
2018-05-07T02:16:33.963Z,5.30
2018-05-07T02:19:01.407Z,4.63
2018-05-07T02:21:28.911Z,5.10
2018-05-07T02:23:56.334Z,4.87
2018-05-07T02:26:23.791Z,4.20
2018-05-07T02:28:51.270Z,4.27
2018-05-07T02:31:18.824Z,4.93
2018-05-07T02:33:46.167Z,4.90
2018-05-07T02:36:13.636Z,5.20
2018-05-07T02:38:41.075Z,5.00
2018-05-07T02:41:08.579Z,5.00
2018-05-07T02:43:36.040Z,5.00
2018-05-07T02:46:03.494Z,4.93
2018-05-07T02:48:30.930Z,4.50
2018-05-07T02:50:58.395Z,5.10
2018-05-07T02:53:25.825Z,4.80
2018-05-07T02:55:54.070Z,5.23
2018-05-07T02:58:21.511Z,5.70
2018-05-07T03:00:48.955Z,4.97
2018-05-07T03:03:16.442Z,5.17
2018-05-07T03:05:43.881Z,5.37
2018-05-07T03:08:11.378Z,4.90
2018-05-07T03:10:38.821Z,5.77
2018-05-07T03:13:06.801Z,5.30
2018-05-07T03:15:34.252Z,4.80
2018-05-07T03:18:01.699Z,5.57
2018-05-07T03:20:29.186Z,4.80
2018-05-07T03:22:56.620Z,5.17
2018-05-07T03:25:24.077Z,5.27
2018-05-07T03:27:51.569Z,4.97
2018-05-07T03:30:19.026Z,5.60
2018-05-07T03:32:46.459Z,5.57
2018-05-07T03:35:13.959Z,5.40
2018-05-07T03:37:41.429Z,4.97
2018-05-07T03:40:08.979Z,5.60
2018-05-07T03:42:36.434Z,5.43
2018-05-07T03:45:03.876Z,4.80
2018-05-07T03:47:31.363Z,4.73
2018-05-07T03:49:58.821Z,5.57
2018-05-07T03:52:26.261Z,5.70
2018-05-07T03:54:53.693Z,5.40
2018-05-07T03:57:21.918Z,4.97
2018-05-07T03:59:49.358Z,5.60
2018-05-07T04:02:16.797Z,6.13
2018-05-07T04:04:45.022Z,6.00
2018-05-07T04:07:12.466Z,6.30
2018-05-07T04:09:39.907Z,5.90
2018-05-07T04:12:07.367Z,6.27
2018-05-07T04:14:34.798Z,5.53
2018-05-07T04:17:14.849Z,6.20
2018-05-07T04:19:54.095Z,6.33
2018-05-07T04:22:34.147Z,5.70
2018-05-07T04:25:02.346Z,5.47
2018-05-07T04:27:29.791Z,6.53
2018-05-07T04:29:57.229Z,6.30
2018-05-07T04:32:25.471Z,6.33
2018-05-07T04:34:52.949Z,5.90
2018-05-07T04:37:20.399Z,5.97
2018-05-07T04:39:47.967Z,6.97
2018-05-07T04:42:15.423Z,6.50
2018-05-07T04:44:42.903Z,6.23
2018-05-07T04:47:10.342Z,6.50
2018-05-07T04:49:37.911Z,6.20
2018-05-07T04:52:05.369Z,5.93
2018-05-07T04:54:32.831Z,5.70
2018-05-07T04:57:00.289Z,6.20
2018-05-07T04:59:27.811Z,6.30
2018-05-07T05:01:56.052Z,6.00
2018-05-07T05:04:23.482Z,6.33
2018-05-07T05:06:50.930Z,5.90
2018-05-07T05:09:18.358Z,5.67
2018-05-07T05:11:46.566Z,6.23
2018-05-07T05:14:14.000Z,5.50
2018-05-07T05:16:42.235Z,6.80
2018-05-07T05:19:09.818Z,6.27
2018-05-07T05:21:37.266Z,6.40
2018-05-07T05:24:04.718Z,6.53
2018-05-07T05:26:32.175Z,6.00
2018-05-07T05:28:59.611Z,7.13
2018-05-07T05:31:27.110Z,6.47
2018-05-07T05:33:54.579Z,5.60
2018-05-07T05:36:22.130Z,6.10
2018-05-07T05:38:49.598Z,5.80
2018-05-07T05:41:17.056Z,4.97
2018-05-07T05:43:44.593Z,5.63
2018-05-07T05:46:12.052Z,5.27
2018-05-07T05:48:39.486Z,5.73
2018-05-07T05:51:07.718Z,5.90
2018-05-07T05:53:35.168Z,5.50
2018-05-07T05:56:02.606Z,5.43
2018-05-07T05:58:30.115Z,4.33
2018-05-07T06:00:57.550Z,5.63
2018-05-07T06:03:25.023Z,4.93
2018-05-07T06:05:52.458Z,5.70
2018-05-07T06:08:19.902Z,5.47
2018-05-07T06:10:47.398Z,5.70
2018-05-07T06:13:14.869Z,5.27
2018-05-07T06:15:42.302Z,5.50
2018-05-07T06:18:09.794Z,5.53
2018-05-07T06:20:37.257Z,5.60
2018-05-07T06:23:04.694Z,4.43
2018-05-07T06:25:32.135Z,3.90
2018-05-07T06:28:00.365Z,5.10
2018-05-07T06:30:27.804Z,4.93
2018-05-07T06:32:55.242Z,5.63
2018-05-07T06:35:22.929Z,4.00
2018-05-07T06:37:50.412Z,4.70
2018-05-07T06:40:18.027Z,3.37
2018-05-07T06:42:45.479Z,4.80
2018-05-07T06:45:13.718Z,4.90
2018-05-07T06:47:41.177Z,4.17
2018-05-07T06:50:08.610Z,4.33
2018-05-07T06:52:36.078Z,4.43
2018-05-07T06:55:03.519Z,3.67
2018-05-07T06:57:31.034Z,3.50
2018-05-07T06:59:58.474Z,3.23
2018-05-07T07:02:25.986Z,4.00
2018-05-07T07:04:53.394Z,3.43
2018-05-07T07:07:20.901Z,4.10
2018-05-07T07:09:48.322Z,3.77
2018-05-07T07:12:15.795Z,3.80
2018-05-07T07:14:43.264Z,2.90
2018-05-07T07:17:10.811Z,3.00
2018-05-07T07:19:38.280Z,4.70
2018-05-07T07:22:05.724Z,3.83
2018-05-07T07:24:33.269Z,4.57
2018-05-07T07:27:00.714Z,3.40
2018-05-07T07:29:28.915Z,4.00
2018-05-07T07:31:56.382Z,3.90
2018-05-07T07:34:23.858Z,3.30
2018-05-07T07:36:51.349Z,3.20
2018-05-07T07:39:18.848Z,4.97
2018-05-07T07:41:46.246Z,3.13
2018-05-07T07:44:13.689Z,3.03
2018-05-07T07:46:41.137Z,3.90
2018-05-07T07:49:08.577Z,3.67
2018-05-07T07:51:36.808Z,4.10
2018-05-07T07:54:04.289Z,3.77
2018-05-07T07:56:31.701Z,3.77
2018-05-07T07:58:59.197Z,4.00
2018-05-07T08:01:26.630Z,3.70
2018-05-07T08:03:54.092Z,3.57
2018-05-07T08:06:21.580Z,2.47
2018-05-07T08:08:49.018Z,3.10
2018-05-07T08:11:16.584Z,3.13
2018-05-07T08:13:44.076Z,3.00
2018-05-07T08:16:11.527Z,3.77
2018-05-07T08:18:38.986Z,3.00
2018-05-07T08:21:06.425Z,3.13
2018-05-07T08:23:33.861Z,2.90
2018-05-07T08:26:01.294Z,2.97
2018-05-07T08:28:28.830Z,2.77
2018-05-07T08:30:56.295Z,2.57
2018-05-07T08:33:23.749Z,2.27
2018-05-07T08:35:51.210Z,2.27
2018-05-07T08:38:18.674Z,2.50
2018-05-07T08:40:46.107Z,3.10
2018-05-07T08:43:13.550Z,2.97
2018-05-07T08:45:41.962Z,2.73
2018-05-07T08:48:09.444Z,2.87
2018-05-07T08:50:36.873Z,2.67
2018-05-07T08:53:04.410Z,2.17
2018-05-07T08:55:31.771Z,3.40
2018-05-07T08:57:59.973Z,2.40
2018-05-07T09:00:27.472Z,2.17
2018-05-07T09:02:54.902Z,2.17
2018-05-07T09:05:22.351Z,3.43
2018-05-07T09:07:49.821Z,2.77
2018-05-07T09:10:17.254Z,2.00
2018-05-07T09:12:45.451Z,2.30
2018-05-07T09:15:12.959Z,2.67
2018-05-07T09:17:40.415Z,2.60
2018-05-07T09:20:07.947Z,2.93
2018-05-07T09:22:35.369Z,2.10
2018-05-07T09:25:03.584Z,3.00
2018-05-07T09:27:31.061Z,2.23
2018-05-07T09:29:58.548Z,2.70
2018-05-07T09:32:26.103Z,2.57
2018-05-07T09:34:53.547Z,2.70
2018-05-07T09:37:21.099Z,2.47
2018-05-07T09:39:48.542Z,2.13
2018-05-07T09:42:16.744Z,2.60
2018-05-07T09:44:44.185Z,2.27
2018-05-07T09:47:11.639Z,2.70
2018-05-07T09:49:39.872Z,2.13
2018-05-07T09:52:07.331Z,2.30
2018-05-07T09:54:34.898Z,2.43
2018-05-07T09:57:02.381Z,2.50
2018-05-07T09:59:29.802Z,2.10
2018-05-07T10:01:57.280Z,2.37
2018-05-07T10:04:24.740Z,2.00
2018-05-07T10:06:52.171Z,2.27
2018-05-07T10:09:19.654Z,1.90
2018-05-07T10:11:47.123Z,1.93
2018-05-07T10:14:14.683Z,2.00
2018-05-07T10:16:42.154Z,2.17
2018-05-07T10:19:09.590Z,2.00
2018-05-07T10:21:37.071Z,1.80
2018-05-07T10:24:04.538Z,1.90
2018-05-07T10:26:31.982Z,2.10
2018-05-07T10:28:59.449Z,2.30
2018-05-07T10:31:26.878Z,2.30
2018-05-07T10:33:54.320Z,1.83
2018-05-07T10:36:22.537Z,1.97
2018-05-07T10:38:49.970Z,2.60
2018-05-07T10:41:17.419Z,2.20
2018-05-07T10:43:45.628Z,3.17
2018-05-07T10:46:13.114Z,4.33
2018-05-07T10:48:40.558Z,4.83
2018-05-07T10:51:08.000Z,4.27
2018-05-07T10:53:35.439Z,2.70
2018-05-07T10:56:03.686Z,3.60
2018-05-07T10:58:31.143Z,2.93
2018-05-07T11:00:58.594Z,2.87
2018-05-07T11:03:26.034Z,2.97
2018-05-07T11:05:53.487Z,2.60
2018-05-07T11:08:20.987Z,2.70
2018-05-07T11:10:48.451Z,6.03
2018-05-07T11:13:15.909Z,3.27
2018-05-07T11:15:43.365Z,3.07
2018-05-07T11:18:10.825Z,2.30
2018-05-07T11:20:38.286Z,2.37
2018-05-07T11:23:05.748Z,2.60
2018-05-07T11:25:33.222Z,3.00
2018-05-07T11:28:00.670Z,2.30
2018-05-07T11:30:28.139Z,2.20
2018-05-07T11:32:55.605Z,2.67
2018-05-07T11:35:23.136Z,1.97
2018-05-07T11:37:50.554Z,2.40
2018-05-07T11:40:17.998Z,1.93
2018-05-07T11:42:45.445Z,1.90
2018-05-07T11:45:12.895Z,2.23
2018-05-07T11:47:40.347Z,1.83
2018-05-07T11:50:07.766Z,1.53
2018-05-07T11:52:35.963Z,1.80
2018-05-07T11:55:03.402Z,1.33
2018-05-07T11:57:31.752Z,1.47
2018-05-07T11:59:59.195Z,1.53
2018-05-07T12:02:26.761Z,1.70
2018-05-07T12:04:54.119Z,1.57
2018-05-07T12:07:21.559Z,1.70
2018-05-07T12:09:48.994Z,1.57
2018-05-07T12:12:17.245Z,1.43
2018-05-07T12:14:44.678Z,1.47
2018-05-07T12:17:12.153Z,1.57
2018-05-07T12:19:39.586Z,1.40
2018-05-07T12:22:07.051Z,1.60
2018-05-07T12:24:34.500Z,1.60
2018-05-07T12:27:01.948Z,1.60
2018-05-07T12:29:30.146Z,1.70
2018-05-07T12:31:57.798Z,1.60
2018-05-07T12:34:25.098Z,1.60
2018-05-07T12:36:52.538Z,2.00
2018-05-07T12:39:20.039Z,1.90
2018-05-07T12:41:47.591Z,1.90
2018-05-07T12:44:15.067Z,1.70
2018-05-07T12:46:42.576Z,2.13
2018-05-07T12:49:09.974Z,1.70
2018-05-07T12:51:37.417Z,2.03
2018-05-07T12:54:04.870Z,2.10
2018-05-07T12:56:32.358Z,1.80
2018-05-07T12:58:59.869Z,1.93
2018-05-07T13:01:27.277Z,2.00
2018-05-07T13:03:54.752Z,2.00
2018-05-07T13:06:22.207Z,2.17
2018-05-07T13:08:49.642Z,2.00
2018-05-07T13:11:17.083Z,2.00
2018-05-07T13:13:45.302Z,2.40
2018-05-07T13:16:12.779Z,2.23
2018-05-07T13:18:40.210Z,2.20
2018-05-07T13:21:07.699Z,1.70
2018-05-07T13:23:35.163Z,2.13
2018-05-07T13:26:02.614Z,2.00
2018-05-07T13:28:30.106Z,1.80
2018-05-07T13:30:58.355Z,1.87
2018-05-07T13:33:25.795Z,2.20
2018-05-07T13:35:53.243Z,1.87
2018-05-07T13:38:20.683Z,1.80
2018-05-07T13:40:48.914Z,2.33
2018-05-07T13:43:16.384Z,1.87
2018-05-07T13:45:43.951Z,2.33
2018-05-07T13:48:11.407Z,2.10
2018-05-07T13:50:38.838Z,2.23
2018-05-07T13:53:06.842Z,2.10
2018-05-07T13:55:34.359Z,1.80
2018-05-07T13:58:02.562Z,2.13
2018-05-07T14:00:30.081Z,2.00
2018-05-07T14:02:57.441Z,2.30
2018-05-07T14:05:25.679Z,2.33
2018-05-07T14:07:53.131Z,2.40
2018-05-07T14:10:20.573Z,2.20
2018-05-07T14:12:48.062Z,2.00
2018-05-07T14:15:15.522Z,2.00
2018-05-07T14:17:42.974Z,2.20
2018-05-07T14:20:10.423Z,2.83
2018-05-07T14:22:37.875Z,2.53
2018-05-07T14:25:05.331Z,2.40
2018-05-07T14:27:32.939Z,1.73
2018-05-07T14:30:00.474Z,2.57
2018-05-07T14:32:27.915Z,2.00
2018-05-07T14:34:56.114Z,2.20
2018-05-07T14:37:23.602Z,2.50
2018-05-07T14:39:51.044Z,1.90
2018-05-07T14:42:18.482Z,2.47
2018-05-07T14:44:45.918Z,2.30
2018-05-07T14:47:13.357Z,2.10
2018-05-07T14:49:40.807Z,2.40
2018-05-07T14:52:08.255Z,2.00
2018-05-07T14:54:35.737Z,2.30
2018-05-07T14:57:03.183Z,2.20
2018-05-07T14:59:30.618Z,2.20
2018-05-07T15:01:58.058Z,2.20
2018-05-07T15:04:26.371Z,2.63
2018-05-07T15:06:53.806Z,2.10
2018-05-07T15:09:22.110Z,2.20
2018-05-07T15:11:49.540Z,2.50
2018-05-07T15:14:23.615Z,2.20
2018-05-07T15:16:51.055Z,2.10
2018-05-07T15:19:18.508Z,2.00
2018-05-07T15:21:45.966Z,2.47
2018-05-07T15:24:13.372Z,2.43
2018-05-07T15:26:40.807Z,2.20
2018-05-07T15:29:08.306Z,2.30
2018-05-07T15:31:35.715Z,2.13
2018-05-07T15:34:03.274Z,2.33
2018-05-07T15:36:30.699Z,2.20
2018-05-07T15:38:58.947Z,2.30
2018-05-07T15:41:26.388Z,2.10
2018-05-07T15:43:53.934Z,2.00
2018-05-07T15:46:21.291Z,2.30
2018-05-07T15:48:48.863Z,2.10
2018-05-07T15:51:16.294Z,2.07
2018-05-07T15:53:44.563Z,2.20
2018-05-07T15:56:11.976Z,1.87
2018-05-07T15:58:39.420Z,2.47
2018-05-07T16:01:06.874Z,2.10
2018-05-07T16:03:34.310Z,1.90
2018-05-07T16:06:01.746Z,1.63
2018-05-07T16:08:29.290Z,1.87
2018-05-07T16:10:56.763Z,1.90
2018-05-07T16:13:24.220Z,2.03
2018-05-07T16:15:51.683Z,2.10
2018-05-07T16:18:19.204Z,2.00
2018-05-07T16:20:46.586Z,2.20
2018-05-07T16:23:14.902Z,2.00
2018-05-07T16:25:42.334Z,1.77
2018-05-07T16:28:09.688Z,1.90
2018-05-07T16:30:37.163Z,1.90
2018-05-07T16:33:04.644Z,2.40
2018-05-07T16:35:32.213Z,1.90
2018-05-07T16:37:59.659Z,1.70
2018-05-07T16:40:27.120Z,2.10
2018-05-07T16:42:54.539Z,1.90
2018-05-07T16:45:21.983Z,2.00
2018-05-07T16:47:50.219Z,1.73
2018-05-07T16:50:17.652Z,2.07
2018-05-07T16:52:45.091Z,2.10
2018-05-07T16:55:13.299Z,2.10
2018-05-07T16:57:40.740Z,1.80
2018-05-07T17:00:08.182Z,2.00
2018-05-07T17:02:36.382Z,2.00
2018-05-07T17:05:03.881Z,1.80
2018-05-07T17:07:31.338Z,1.73
2018-05-07T17:09:58.782Z,2.00
2018-05-07T17:12:26.216Z,1.60
2018-05-07T17:14:54.448Z,1.97
2018-05-07T17:17:21.903Z,1.90
2018-05-07T17:19:49.371Z,1.80
2018-05-07T17:22:16.826Z,2.07
2018-05-07T17:24:44.286Z,1.80
2018-05-07T17:27:11.751Z,2.10
2018-05-07T17:29:39.221Z,2.00
2018-05-07T17:32:06.686Z,2.07
2018-05-07T17:34:34.209Z,1.67
2018-05-07T17:37:01.627Z,1.90
2018-05-07T17:39:29.158Z,2.13
2018-05-07T17:41:56.690Z,1.70
2018-05-07T17:44:36.074Z,2.07
2018-05-07T17:47:15.393Z,1.90
2018-05-07T17:49:42.894Z,1.83
2018-05-07T17:52:11.121Z,1.90
2018-05-07T17:54:38.659Z,1.80
2018-05-07T17:57:06.059Z,1.97
2018-05-07T17:59:33.503Z,2.10
2018-05-07T18:02:00.996Z,1.70
2018-05-07T18:04:28.434Z,1.90
2018-05-07T18:06:55.870Z,1.80
2018-05-07T18:09:23.328Z,2.03
2018-05-07T18:11:50.768Z,2.37
2018-05-07T18:14:19.007Z,2.00
2018-05-07T18:16:46.482Z,2.30
2018-05-07T18:19:13.930Z,2.20
2018-05-07T18:21:41.378Z,2.20
2018-05-07T18:24:08.851Z,1.70
2018-05-07T18:26:36.326Z,1.90
2018-05-07T18:29:03.792Z,1.63
2018-05-07T18:31:31.343Z,2.20
2018-05-07T18:33:58.974Z,2.27
2018-05-07T18:36:26.459Z,2.10
2018-05-07T18:38:53.912Z,2.13
2018-05-07T18:41:21.354Z,2.50
2018-05-07T18:43:48.917Z,2.63
2018-05-07T18:46:16.420Z,3.30
2018-05-07T18:48:43.874Z,2.80
2018-05-07T18:51:11.324Z,2.30
2018-05-07T18:53:38.826Z,2.90
2018-05-07T18:56:06.361Z,2.80
2018-05-07T18:58:33.799Z,3.00
2018-05-07T19:01:01.286Z,2.60
2018-05-07T19:03:28.747Z,3.07
2018-05-07T19:05:56.307Z,3.00
2018-05-07T19:08:23.768Z,2.33
2018-05-07T19:10:52.018Z,2.30
2018-05-07T19:13:19.461Z,2.63
2018-05-07T19:15:47.671Z,2.40
2018-05-07T19:18:15.147Z,2.50
2018-05-07T19:20:42.594Z,2.80
2018-05-07T19:23:10.035Z,2.50
2018-05-07T19:25:37.552Z,2.00
2018-05-07T19:28:04.971Z,2.40
2018-05-07T19:30:32.411Z,2.60
2018-05-07T19:32:59.915Z,2.60
2018-05-07T19:35:27.362Z,2.63
2018-05-07T19:37:54.839Z,2.03
2018-05-07T19:40:22.335Z,2.03
2018-05-07T19:42:50.588Z,2.23
2018-05-07T19:45:18.039Z,2.00
2018-05-07T19:47:45.492Z,2.20
2018-05-07T19:50:12.962Z,2.60
2018-05-07T19:52:40.398Z,2.10
2018-05-07T19:55:07.882Z,2.10
2018-05-07T19:57:35.342Z,2.23
2018-05-07T20:00:02.811Z,2.27
2018-05-07T20:02:30.277Z,2.63
2018-05-07T20:04:57.755Z,2.63
2018-05-07T20:07:25.314Z,2.47
2018-05-07T20:09:52.754Z,2.13
2018-05-07T20:12:20.300Z,2.30
2018-05-07T20:14:47.683Z,2.10
2018-05-07T20:17:15.220Z,2.50
2018-05-07T20:19:42.698Z,2.10
2018-05-07T20:22:10.241Z,2.17
2018-05-07T20:24:37.732Z,2.30
2018-05-07T20:27:05.199Z,2.07
2018-05-07T20:29:32.632Z,2.00
2018-05-07T20:32:00.075Z,2.20
2018-05-07T20:34:27.652Z,2.63
2018-05-07T20:36:55.102Z,1.90
2018-05-07T20:39:22.535Z,2.50
2018-05-07T20:41:50.063Z,2.07
2018-05-07T20:44:17.497Z,2.20
2018-05-07T20:46:44.941Z,2.40
2018-05-07T20:49:13.165Z,2.40
2018-05-07T20:51:40.632Z,2.93
2018-05-07T20:54:08.082Z,2.10
2018-05-07T20:56:35.536Z,2.60
2018-05-07T20:59:03.010Z,2.10
2018-05-07T21:01:30.503Z,2.30
2018-05-07T21:03:57.926Z,2.03
2018-05-07T21:06:25.403Z,2.13
2018-05-07T21:08:52.835Z,2.43
2018-05-07T21:11:20.300Z,2.30
2018-05-07T21:13:47.741Z,2.13
2018-05-07T21:16:15.247Z,2.30
2018-05-07T21:18:42.694Z,2.20
2018-05-07T21:21:10.235Z,2.20
2018-05-07T21:23:38.412Z,1.93
2018-05-07T21:26:05.898Z,2.40
2018-05-07T21:28:33.330Z,2.37
2018-05-07T21:31:00.821Z,2.13
2018-05-07T21:33:28.253Z,1.90
2018-05-07T21:35:55.756Z,2.40
2018-05-07T21:38:23.322Z,2.13
2018-05-07T21:40:50.750Z,2.73
2018-05-07T21:43:18.239Z,2.00
2018-05-07T21:45:45.691Z,2.00
2018-05-07T21:48:13.128Z,2.10
2018-05-07T21:50:40.620Z,2.17
2018-05-07T21:53:08.082Z,1.93
2018-05-07T21:55:35.618Z,2.03
2018-05-07T21:58:03.092Z,2.63
2018-05-07T22:00:30.546Z,2.07
2018-05-07T22:02:57.973Z,2.37
2018-05-07T22:05:26.176Z,2.00
2018-05-07T22:07:53.697Z,2.10
2018-05-07T22:10:21.823Z,2.03
2018-05-07T22:12:49.310Z,2.10
2018-05-07T22:15:16.751Z,2.20
2018-05-07T22:17:44.230Z,2.63
2018-05-07T22:20:11.667Z,2.40
2018-05-07T22:22:39.110Z,2.13
2018-05-07T22:25:07.430Z,2.53
2018-05-07T22:27:34.876Z,2.43
2018-05-07T22:30:02.314Z,2.70
2018-05-07T22:32:30.519Z,2.70
2018-05-07T22:34:57.999Z,2.30
2018-05-07T22:37:25.437Z,2.67
2018-05-07T22:39:52.935Z,2.37
2018-05-07T22:42:21.078Z,2.53
2018-05-07T22:44:48.556Z,2.03
2018-05-07T22:47:16.006Z,2.33
2018-05-07T22:49:43.508Z,2.30
2018-05-07T22:52:11.027Z,2.70
2018-05-07T22:54:38.382Z,2.50
2018-05-07T22:57:05.867Z,2.80
2018-05-07T22:59:33.299Z,2.60
2018-05-07T23:02:00.762Z,2.60
2018-05-07T23:04:28.191Z,2.43
2018-05-07T23:06:56.396Z,2.50
2018-05-07T23:09:23.891Z,3.03
2018-05-07T23:11:51.346Z,2.60
2018-05-07T23:14:18.791Z,2.60
2018-05-07T23:16:46.227Z,2.30
2018-05-07T23:19:14.426Z,2.97
2018-05-07T23:21:41.871Z,2.80
2018-05-07T23:24:09.367Z,2.50
2018-05-07T23:26:36.939Z,2.40
2018-05-07T23:29:04.399Z,2.77
2018-05-07T23:31:31.855Z,2.80
2018-05-07T23:33:59.286Z,3.57
2018-05-07T23:36:26.795Z,3.23
2018-05-07T23:38:54.342Z,3.13
2018-05-07T23:41:21.817Z,2.97
2018-05-07T23:43:49.345Z,2.67
2018-05-07T23:46:16.774Z,3.00
2018-05-07T23:48:45.019Z,3.03
2018-05-07T23:51:12.466Z,2.90
2018-05-07T23:53:39.937Z,2.60
2018-05-07T23:56:07.379Z,2.93
2018-05-07T23:58:34.858Z,2.90
